Time;durP1;ratioP1;P1;durP2;ratioP2;P2;SDS_P1;SDS_P2;PMS_P1;PMS_P2;Temp;Humidity;BMP_temperature;BMP_pressure;BME280_temperature;BME280_humidity;BME280_pressure;Samples;Min_cycle;Max_cycle;Signal;HPM_P1;HPM_P2
2022/07/03 00:02:09;;;;;;;5.15;2.33;;;25.50;99.90;;;;;;4991062;28;20050;-89
2022/07/03 00:04:35;;;;;;;13.45;1.70;;;25.40;99.90;;;;;;4992132;28;20033;-89
2022/07/03 00:07:01;;;;;;;4.88;1.85;;;25.40;99.90;;;;;;4992119;28;20586;-88
2022/07/03 00:09:26;;;;;;;6.75;2.05;;;25.40;99.90;;;;;;4990933;28;20022;-88
2022/07/03 00:11:52;;;;;;;4.18;1.70;;;25.40;99.90;;;;;;4994088;28;20310;-87
2022/07/03 00:14:18;;;;;;;7.88;2.22;;;25.40;99.90;;;;;;4991997;28;20122;-87
2022/07/03 00:16:44;;;;;;;3.63;1.70;;;25.40;99.90;;;;;;4991858;28;20551;-88
2022/07/03 00:19:10;;;;;;;2.67;1.65;;;25.40;99.90;;;;;;4990315;28;20109;-85
2022/07/03 00:21:52;;;;;;;3.42;1.60;;;25.40;99.90;;;;;;4991564;28;20041;-87
2022/07/03 00:24:26;;;;;;;2.28;1.52;;;25.30;99.90;;;;;;4975728;28;20022;-87
2022/07/03 00:26:53;;;;;;;3.50;1.90;;;25.30;99.90;;;;;;4976405;28;20031;-87
2022/07/03 00:29:23;;;;;;;6.68;1.98;;;25.20;99.90;;;;;;4990854;28;20014;-87
2022/07/03 00:31:49;;;;;;;2.97;1.70;;;25.20;99.90;;;;;;4990392;28;20117;-87
2022/07/03 00:34:16;;;;;;;4.78;1.63;;;25.20;99.90;;;;;;4990389;28;20409;-87
2022/07/03 00:36:46;;;;;;;3.38;1.88;;;25.20;99.90;;;;;;4991661;28;20026;-88
2022/07/03 00:39:12;;;;;;;3.80;1.90;;;25.10;99.90;;;;;;4991790;28;20022;-87
2022/07/03 00:41:38;;;;;;;4.07;2.35;;;25.10;99.90;;;;;;4994458;28;20049;-88
2022/07/03 00:44:04;;;;;;;2.47;1.48;;;25.10;99.90;;;;;;4989992;28;20026;-84
2022/07/03 00:46:30;;;;;;;7.65;1.90;;;25.10;99.90;;;;;;4991194;28;20030;-87
2022/07/03 00:48:57;;;;;;;5.00;1.80;;;25.10;99.90;;;;;;4990236;28;20065;-87
2022/07/03 00:51:26;;;;;;;2.90;1.63;;;25.00;99.90;;;;;;4991404;28;20194;-87
2022/07/03 00:53:57;;;;;;;14.35;2.03;;;25.00;99.90;;;;;;4991305;28;20567;-86
2022/07/03 00:56:27;;;;;;;3.45;1.75;;;25.00;99.90;;;;;;4982674;28;20026;-86
2022/07/03 00:58:56;;;;;;;5.80;1.75;;;25.00;99.90;;;;;;4989379;28;20018;-87
2022/07/03 01:01:30;;;;;;;7.15;1.85;;;25.00;99.90;;;;;;4988446;28;20087;-87
2022/07/03 01:04:22;;;;;;;3.90;1.90;;;24.90;99.90;;;;;;4990192;28;20168;-87
2022/07/03 01:06:57;;;;;;;5.93;2.00;;;25.00;99.90;;;;;;4989812;28;20070;-86
2022/07/03 01:09:34;;;;;;;1.90;1.50;;;25.00;99.90;;;;;;4991453;28;20026;-87
2022/07/03 01:12:10;;;;;;;4.45;1.40;;;24.90;99.90;;;;;;4990387;28;20037;-85
2022/07/03 01:15:11;;;;;;;2.47;1.60;;;24.90;99.90;;;;;;4989783;28;20153;-87
2022/07/03 01:17:49;;;;;;;2.40;1.67;;;24.90;99.90;;;;;;4971258;28;20038;-87
2022/07/03 01:20:22;;;;;;;4.15;1.95;;;24.80;99.90;;;;;;4985813;28;20030;-85
2022/07/03 01:22:57;;;;;;;5.97;1.70;;;24.80;99.90;;;;;;4990126;28;20121;-86
2022/07/03 01:25:25;;;;;;;3.90;1.50;;;24.80;99.90;;;;;;4989424;28;20033;-86
2022/07/03 01:28:14;;;;;;;7.05;1.95;;;24.70;99.90;;;;;;4991366;28;20193;-84
2022/07/03 01:30:54;;;;;;;5.40;1.90;;;24.80;99.90;;;;;;4993504;28;20515;-85
2022/07/03 01:33:23;;;;;;;7.18;1.83;;;24.70;99.90;;;;;;4991465;28;20093;-86
2022/07/03 01:35:49;;;;;;;3.13;1.55;;;24.70;99.90;;;;;;4989632;28;20486;-86
2022/07/03 01:38:14;;;;;;;9.57;2.03;;;24.70;99.90;;;;;;4991286;28;20036;-85
2022/07/03 01:40:42;;;;;;;4.82;1.83;;;24.70;99.90;;;;;;4993292;28;20504;-86
2022/07/03 01:43:12;;;;;;;2.75;1.40;;;24.70;99.90;;;;;;4990361;28;20065;-85
2022/07/03 01:45:47;;;;;;;4.45;1.58;;;24.70;99.90;;;;;;4990551;28;20026;-85
2022/07/03 01:48:15;;;;;;;6.30;1.65;;;24.80;99.90;;;;;;4991464;28;20031;-85
2022/07/03 01:50:42;;;;;;;3.42;1.70;;;24.80;99.90;;;;;;4990593;28;20086;-85
2022/07/03 01:53:09;;;;;;;5.75;1.80;;;24.80;99.90;;;;;;4990107;28;20023;-84
2022/07/03 01:55:38;;;;;;;7.05;1.63;;;24.70;99.90;;;;;;4989214;28;20029;-85
2022/07/03 01:58:04;;;;;;;4.00;1.75;;;24.70;99.90;;;;;;4981568;28;20026;-85
2022/07/03 02:00:31;;;;;;;4.57;1.65;;;24.70;99.90;;;;;;4990068;28;20452;-85
2022/07/03 02:03:03;;;;;;;3.92;1.58;;;24.60;99.90;;;;;;4990311;28;20074;-85
2022/07/03 02:05:41;;;;;;;1.63;1.45;;;24.60;99.90;;;;;;4989391;28;20033;-85
2022/07/03 02:08:44;;;;;;;2.25;1.50;;;24.50;99.90;;;;;;4982385;28;20027;-86
2022/07/03 02:11:24;;;;;;;3.63;1.70;;;24.60;99.90;;;;;;4995945;28;21101;-85
2022/07/03 02:13:54;;;;;;;1.73;1.48;;;24.50;99.90;;;;;;4994613;28;20022;-85
2022/07/03 02:16:23;;;;;;;2.50;1.38;;;24.50;99.90;;;;;;4988680;28;20030;-85
2022/07/03 02:19:10;;;;;;;4.97;1.58;;;24.40;99.90;;;;;;4992877;28;20309;-86
2022/07/03 02:21:42;;;;;;;2.15;1.58;;;24.40;99.90;;;;;;4990370;28;20189;-86
2022/07/03 02:24:21;;;;;;;2.88;1.40;;;24.40;99.90;;;;;;4980863;28;20023;-86
2022/07/03 02:27:03;;;;;;;2.90;1.80;;;24.30;99.90;;;;;;4993735;28;20049;-85
2022/07/03 02:29:58;;;;;;;5.32;1.63;;;24.40;99.90;;;;;;4992577;28;20478;-86
2022/07/03 02:32:27;;;;;;;2.67;1.70;;;24.30;99.90;;;;;;4988899;28;20087;-86
2022/07/03 02:35:04;;;;;;;3.40;1.52;;;24.40;99.90;;;;;;4993390;28;20302;-86
2022/07/03 02:37:34;;;;;;;7.85;1.40;;;24.30;99.90;;;;;;4994135;28;20026;-85
2022/07/03 02:40:06;;;;;;;3.22;1.52;;;24.30;99.90;;;;;;4993647;28;20030;-86
2022/07/03 02:42:45;;;;;;;3.90;1.60;;;24.30;99.90;;;;;;4987065;28;20034;-86
2022/07/03 02:45:11;;;;;;;2.80;1.88;;;24.20;99.90;;;;;;4993117;28;20022;-86
2022/07/03 02:48:00;;;;;;;6.30;1.63;;;24.20;99.90;;;;;;4992701;28;20587;-85
2022/07/03 02:50:28;;;;;;;4.18;1.60;;;24.30;99.90;;;;;;4993205;28;20030;-86
2022/07/03 02:53:06;;;;;;;2.30;1.27;;;24.20;99.90;;;;;;4992912;28;20026;-86
2022/07/03 02:55:42;;;;;;;3.72;1.40;;;24.20;99.90;;;;;;4992986;28;20113;-84
2022/07/03 02:58:30;;;;;;;2.60;1.35;;;24.20;99.90;;;;;;4974535;28;20050;-85
2022/07/03 03:01:24;;;;;;;2.65;1.48;;;24.20;99.90;;;;;;4992240;28;20149;-84
2022/07/03 03:04:28;;;;;;;2.30;1.52;;;24.10;99.90;;;;;;4993288;28;20280;-84
2022/07/03 03:07:01;;;;;;;3.22;1.52;;;24.10;99.90;;;;;;4992609;28;20473;-84
2022/07/03 03:09:39;;;;;;;3.25;1.50;;;24.00;99.90;;;;;;4993247;28;20113;-84
2022/07/03 03:12:06;;;;;;;5.13;1.30;;;24.00;99.90;;;;;;4996341;28;20027;-85
2022/07/03 03:14:43;;;;;;;3.72;1.70;;;24.00;99.90;;;;;;4993086;28;20026;-85
2022/07/03 03:17:24;;;;;;;3.08;1.55;;;24.00;99.90;;;;;;4992447;28;20482;-84
2022/07/03 03:19:56;;;;;;;3.40;1.40;;;24.00;99.90;;;;;;4992704;28;20069;-83
2022/07/03 03:23:04;;;;;;;7.17;1.50;;;24.00;99.90;;;;;;4993395;28;20057;-84
2022/07/03 03:25:30;;;;;;;1.45;1.33;;;23.90;99.90;;;;;;4992578;28;20029;-85
2022/07/03 03:27:56;;;;;;;6.30;1.92;;;24.00;99.90;;;;;;4993265;28;20022;-83
2022/07/03 03:30:22;;;;;;;2.30;1.60;;;23.90;99.90;;;;;;4990766;28;20390;-83
2022/07/03 03:32:48;;;;;;;3.60;1.40;;;23.90;99.90;;;;;;4992950;28;20027;-85
2022/07/03 03:35:15;;;;;;;2.35;1.40;;;23.90;99.90;;;;;;4990935;28;20026;-85
2022/07/03 03:37:41;;;;;;;3.28;1.45;;;23.90;99.90;;;;;;4991904;28;20031;-84
2022/07/03 03:40:08;;;;;;;3.17;1.67;;;23.90;99.90;;;;;;4991956;28;20111;-84
2022/07/03 03:42:34;;;;;;;4.85;1.58;;;23.80;99.90;;;;;;4995624;28;20500;-85
2022/07/03 03:45:03;;;;;;;2.17;1.30;;;23.90;99.90;;;;;;4990918;28;20050;-86
2022/07/03 03:47:29;;;;;;;3.50;1.70;;;23.90;99.90;;;;;;4991370;28;20551;-84
2022/07/03 03:49:55;;;;;;;7.45;1.52;;;23.80;99.90;;;;;;4990465;28;20253;-83
2022/07/03 03:52:25;;;;;;;3.00;1.67;;;23.80;99.90;;;;;;4992915;28;20362;-84
2022/07/03 03:54:50;;;;;;;5.72;1.73;;;24.00;99.90;;;;;;4990824;28;20026;-83
2022/07/03 03:57:21;;;;;;;9.00;1.25;;;24.00;99.90;;;;;;4992751;28;20104;-84
2022/07/03 03:59:48;;;;;;;3.28;1.60;;;24.00;99.90;;;;;;4991600;28;20093;-83
2022/07/03 04:02:14;;;;;;;3.03;1.50;;;24.00;99.90;;;;;;4990846;28;20069;-86
2022/07/03 04:04:46;;;;;;;4.28;1.48;;;24.00;99.90;;;;;;4992099;28;20088;-84
2022/07/03 04:07:11;;;;;;;3.60;1.50;;;24.00;99.90;;;;;;4992617;28;20392;-84
2022/07/03 04:09:37;;;;;;;3.53;1.70;;;24.00;99.90;;;;;;4991831;28;20034;-83
2022/07/03 04:12:03;;;;;;;3.28;1.35;;;24.00;99.90;;;;;;4994751;28;20034;-83
2022/07/03 04:14:29;;;;;;;3.75;1.60;;;24.00;99.90;;;;;;4992155;28;20030;-83
2022/07/03 04:16:55;;;;;;;5.22;1.80;;;24.00;99.90;;;;;;4990360;28;20041;-85
2022/07/03 04:19:22;;;;;;;4.40;1.50;;;24.10;99.90;;;;;;4990605;28;20026;-84
2022/07/03 04:21:49;;;;;;;2.50;1.25;;;24.10;99.90;;;;;;4990493;28;20406;-84
2022/07/03 04:24:15;;;;;;;5.72;1.50;;;24.20;99.90;;;;;;4991792;28;20030;-85
2022/07/03 04:26:41;;;;;;;4.65;1.30;;;24.20;99.90;;;;;;4991658;28;20029;-83
2022/07/03 04:29:06;;;;;;;5.53;1.10;;;24.20;99.90;;;;;;4990366;28;20034;-83
2022/07/03 04:31:35;;;;;;;3.95;1.30;;;24.30;99.90;;;;;;4994131;28;20030;-84
2022/07/03 04:34:01;;;;;;;20.90;2.83;;;24.30;99.90;;;;;;4991799;28;20401;-84
2022/07/03 04:36:27;;;;;;;3.45;1.60;;;24.40;99.90;;;;;;4991751;28;20080;-85
2022/07/03 04:38:52;;;;;;;5.13;1.98;;;24.40;99.90;;;;;;4991812;28;20479;-86
2022/07/03 04:41:18;;;;;;;4.07;1.35;;;24.50;99.90;;;;;;4994294;28;20178;-85
2022/07/03 04:43:44;;;;;;;3.72;1.50;;;24.60;99.90;;;;;;4991734;28;20048;-84
2022/07/03 04:46:10;;;;;;;3.47;1.45;;;24.60;99.90;;;;;;4991335;28;20433;-83
2022/07/03 04:48:36;;;;;;;4.28;1.50;;;24.60;99.90;;;;;;4990139;28;20049;-86
2022/07/03 04:51:01;;;;;;;3.45;1.75;;;24.70;99.90;;;;;;4991539;28;20057;-85
2022/07/03 04:53:27;;;;;;;3.95;1.60;;;24.70;99.90;;;;;;4991505;28;20045;-85
2022/07/03 04:55:53;;;;;;;2.83;1.30;;;24.80;99.90;;;;;;4991254;28;20037;-85
2022/07/03 04:58:18;;;;;;;4.07;1.15;;;24.90;99.90;;;;;;4991837;28;20010;-85
2022/07/03 05:00:45;;;;;;;2.53;1.55;;;24.90;99.90;;;;;;4993477;28;20034;-86
2022/07/03 05:03:12;;;;;;;4.03;1.50;;;25.00;99.90;;;;;;4991508;28;20120;-86
2022/07/03 05:05:38;;;;;;;3.17;1.50;;;25.00;99.90;;;;;;4991076;28;20022;-85
2022/07/03 05:08:12;;;;;;;2.95;1.17;;;25.00;99.90;;;;;;4990446;28;20048;-83
2022/07/03 05:10:38;;;;;;;2.35;1.40;;;25.00;99.90;;;;;;4992750;28;20026;-86
2022/07/03 05:13:04;;;;;;;3.55;1.58;;;25.10;99.90;;;;;;4991759;28;20394;-83
2022/07/03 05:15:30;;;;;;;5.45;1.42;;;25.10;99.90;;;;;;4990779;28;20062;-84
2022/07/03 05:17:55;;;;;;;3.65;1.50;;;25.20;99.90;;;;;;4990354;28;20019;-86
2022/07/03 05:20:24;;;;;;;5.93;1.67;;;25.20;99.90;;;;;;4990937;28;20026;-84
2022/07/03 05:22:57;;;;;;;5.47;1.58;;;25.30;99.90;;;;;;4991392;28;20513;-87
2022/07/03 05:25:23;;;;;;;5.60;2.10;;;25.40;99.90;;;;;;4989748;28;20027;-86
2022/07/03 05:27:55;;;;;;;11.18;2.15;;;25.50;99.90;;;;;;4991533;28;20439;-84
2022/07/03 05:30:23;;;;;;;7.30;1.73;;;25.50;99.90;;;;;;4991175;28;20084;-85
2022/07/03 05:32:49;;;;;;;3.08;1.60;;;25.50;99.90;;;;;;4992408;28;20037;-86
2022/07/03 05:35:15;;;;;;;3.75;1.50;;;25.60;99.90;;;;;;4990498;28;20034;-86
2022/07/03 05:37:41;;;;;;;3.67;1.63;;;25.60;99.90;;;;;;4990134;28;20022;-85
2022/07/03 05:40:07;;;;;;;2.20;1.55;;;25.60;99.90;;;;;;4989561;28;20037;-85
2022/07/03 05:42:33;;;;;;;4.55;1.55;;;25.70;99.90;;;;;;4992722;28;20042;-84
2022/07/03 05:45:00;;;;;;;3.08;1.52;;;25.70;99.90;;;;;;4993760;28;20026;-85
2022/07/03 05:47:25;;;;;;;1.65;1.40;;;25.80;99.90;;;;;;4995231;28;20022;-85
2022/07/03 05:49:51;;;;;;;6.95;1.45;;;25.90;99.90;;;;;;4994321;28;20030;-84
2022/07/03 05:52:17;;;;;;;2.60;1.75;;;25.90;99.90;;;;;;4995034;28;20101;-84
2022/07/03 05:54:43;;;;;;;2.65;1.33;;;26.00;99.90;;;;;;4994470;28;20026;-84
2022/07/03 05:57:09;;;;;;;3.35;1.50;;;26.10;99.90;;;;;;4994941;28;20085;-86
2022/07/03 05:59:35;;;;;;;6.10;1.63;;;26.10;99.90;;;;;;4994213;28;20026;-84
2022/07/03 06:02:01;;;;;;;9.07;2.03;;;26.20;99.90;;;;;;4997442;28;20101;-87
2022/07/03 06:04:27;;;;;;;6.97;2.20;;;26.40;99.90;;;;;;4994452;28;20038;-83
2022/07/03 06:06:54;;;;;;;3.10;1.60;;;26.40;99.90;;;;;;4992372;28;20030;-86
2022/07/03 06:09:20;;;;;;;7.72;1.98;;;26.50;99.90;;;;;;4990465;28;20030;-83
2022/07/03 06:11:47;;;;;;;5.38;1.65;;;26.60;99.90;;;;;;4997026;28;20080;-82
2022/07/03 06:14:13;;;;;;;7.13;1.80;;;26.70;99.90;;;;;;4994116;28;20255;-85
2022/07/03 06:16:39;;;;;;;1.75;1.40;;;26.80;99.90;;;;;;4992889;28;20045;-84
2022/07/03 06:19:05;;;;;;;4.15;1.42;;;26.80;99.90;;;;;;4993977;28;20656;-85
2022/07/03 06:21:31;;;;;;;5.47;1.77;;;26.90;99.90;;;;;;4994033;28;20041;-85
2022/07/03 06:23:57;;;;;;;2.85;1.73;;;27.00;99.90;;;;;;4992991;28;20026;-85
2022/07/03 06:26:23;;;;;;;2.92;1.40;;;27.10;99.90;;;;;;4993903;28;20026;-85
2022/07/03 06:28:49;;;;;;;2.78;1.38;;;27.10;99.90;;;;;;4994094;28;20025;-85
2022/07/03 06:31:14;;;;;;;4.88;1.63;;;27.20;99.90;;;;;;4992600;28;20031;-86
2022/07/03 06:33:40;;;;;;;5.13;1.95;;;27.20;99.90;;;;;;4992753;28;20425;-85
2022/07/03 06:36:06;;;;;;;4.13;1.58;;;27.40;99.90;;;;;;4992698;28;20034;-85
2022/07/03 06:38:32;;;;;;;3.83;1.95;;;27.40;99.90;;;;;;4992863;28;20485;-85
2022/07/03 06:40:58;;;;;;;3.30;1.70;;;27.50;99.90;;;;;;4996566;28;20030;-86
2022/07/03 06:43:23;;;;;;;15.52;1.63;;;27.60;99.90;;;;;;4992982;28;20379;-87
2022/07/03 06:45:49;;;;;;;6.30;1.70;;;27.70;99.90;;;;;;4993572;28;20042;-85
2022/07/03 06:48:15;;;;;;;6.82;1.88;;;27.80;99.90;;;;;;4992454;28;20605;-84
2022/07/03 06:50:41;;;;;;;3.40;1.80;;;27.80;99.90;;;;;;4991941;28;20031;-85
2022/07/03 06:53:06;;;;;;;4.47;1.25;;;27.90;99.90;;;;;;4993961;28;20066;-85
2022/07/03 06:55:32;;;;;;;4.70;1.88;;;28.00;99.90;;;;;;4992628;28;20478;-85
2022/07/03 06:57:58;;;;;;;3.60;1.60;;;28.10;99.90;;;;;;4992588;28;20464;-86
2022/07/03 07:00:24;;;;;;;1.70;1.50;;;28.10;99.90;;;;;;4990558;28;20070;-85
2022/07/03 07:02:50;;;;;;;3.47;1.50;;;28.20;99.90;;;;;;4992301;28;20038;-84
2022/07/03 07:05:15;;;;;;;2.92;1.73;;;28.30;99.90;;;;;;4993128;28;20031;-84
2022/07/03 07:07:41;;;;;;;4.63;1.95;;;28.40;99.90;;;;;;4993868;28;20033;-84
2022/07/03 07:10:07;;;;;;;3.80;1.80;;;28.50;99.90;;;;;;4990163;28;20034;-84
2022/07/03 07:12:33;;;;;;;5.63;2.17;;;28.60;99.90;;;;;;4996764;28;20485;-84
2022/07/03 07:14:59;;;;;;;2.63;1.65;;;28.60;99.90;;;;;;4992860;28;20030;-86
2022/07/03 07:17:24;;;;;;;4.13;1.77;;;28.70;99.90;;;;;;4993494;28;20499;-86
2022/07/03 07:19:50;;;;;;;5.75;1.60;;;28.70;99.90;;;;;;4993029;28;20037;-86
2022/07/03 07:22:16;;;;;;;4.75;1.83;;;28.70;99.90;;;;;;4993156;28;20571;-83
2022/07/03 07:24:41;;;;;;;2.80;1.80;;;28.80;99.90;;;;;;4992881;28;20022;-84
2022/07/03 07:27:07;;;;;;;5.68;1.60;;;28.80;99.90;;;;;;4991981;28;20041;-84
2022/07/03 07:29:33;;;;;;;5.53;1.80;;;28.90;99.90;;;;;;4991006;28;20061;-83
2022/07/03 07:31:58;;;;;;;8.48;1.65;;;29.10;99.90;;;;;;4991451;28;20477;-85
2022/07/03 07:34:24;;;;;;;5.45;1.65;;;29.20;99.90;;;;;;4992696;28;20022;-86
2022/07/03 07:36:50;;;;;;;4.80;1.70;;;29.20;99.90;;;;;;4992341;28;20030;-86
2022/07/03 07:39:15;;;;;;;5.88;1.80;;;29.50;99.90;;;;;;4992466;28;20030;-86
2022/07/03 07:41:41;;;;;;;4.10;1.90;;;29.60;99.90;;;;;;4995536;28;20104;-87
2022/07/03 07:44:07;;;;;;;5.40;1.90;;;29.60;99.90;;;;;;4981846;28;20040;-86
2022/07/03 07:46:33;;;;;;;3.00;2.00;;;29.70;99.90;;;;;;4992305;28;20080;-86
2022/07/03 07:48:58;;;;;;;4.13;2.00;;;29.80;99.90;;;;;;4986241;28;20018;-87
2022/07/03 07:51:24;;;;;;;4.25;2.00;;;29.80;99.90;;;;;;4991157;28;20532;-85
2022/07/03 07:53:52;;;;;;;3.03;1.70;;;29.90;99.90;;;;;;4992163;28;20030;-85
2022/07/03 07:56:18;;;;;;;3.15;1.80;;;30.00;99.90;;;;;;4992581;28;20021;-85
2022/07/03 07:58:43;;;;;;;4.50;2.00;;;30.00;99.90;;;;;;4990389;28;20713;-86
2022/07/03 08:06:37;;;;;;;6.82;2.30;;;30.20;99.90;;;;;;4987539;28;20030;-82
2022/07/03 08:09:03;;;;;;;5.97;1.83;;;30.40;99.90;;;;;;4991363;28;20030;-83
2022/07/03 08:11:29;;;;;;;5.30;2.08;;;30.50;99.80;;;;;;4994481;28;20022;-83
2022/07/03 08:13:54;;;;;;;3.95;1.90;;;30.70;99.50;;;;;;4990781;28;20030;-83
2022/07/03 08:16:20;;;;;;;3.50;1.92;;;30.70;99.70;;;;;;4986384;28;20018;-83
2022/07/03 08:18:46;;;;;;;7.10;2.00;;;30.80;99.10;;;;;;4991863;28;20030;-84
2022/07/03 08:21:12;;;;;;;8.07;2.22;;;30.90;98.70;;;;;;4990644;28;20522;-84
2022/07/03 08:23:38;;;;;;;3.42;2.30;;;30.90;98.80;;;;;;4976564;28;20449;-84
2022/07/03 08:26:04;;;;;;;4.05;2.13;;;30.90;99.00;;;;;;4991342;28;20050;-84
2022/07/03 08:28:30;;;;;;;8.55;2.63;;;31.00;98.80;;;;;;4991898;28;20088;-84
2022/07/03 08:30:55;;;;;;;6.03;2.40;;;31.10;98.00;;;;;;4991869;28;20018;-85
2022/07/03 08:33:21;;;;;;;4.82;2.20;;;31.10;98.50;;;;;;4992056;28;20018;-84
2022/07/03 08:35:47;;;;;;;3.25;1.85;;;31.20;98.50;;;;;;4991519;28;20419;-84
2022/07/03 08:38:12;;;;;;;3.65;1.73;;;31.30;97.90;;;;;;4992219;28;20113;-85
2022/07/03 08:40:40;;;;;;;3.50;2.08;;;31.40;98.00;;;;;;4994363;28;20025;-84
2022/07/03 08:43:06;;;;;;;5.95;2.03;;;31.40;97.60;;;;;;4992235;28;20088;-85
2022/07/03 08:45:34;;;;;;;9.38;2.38;;;31.50;96.50;;;;;;4991270;28;20369;-84
2022/07/03 08:48:01;;;;;;;7.18;2.20;;;31.40;96.90;;;;;;4991944;28;20034;-84
2022/07/03 08:50:28;;;;;;;4.57;2.28;;;31.20;96.60;;;;;;4991340;28;20037;-85
2022/07/03 08:52:54;;;;;;;7.10;2.42;;;31.20;96.90;;;;;;4992107;28;20371;-85
2022/07/03 08:55:20;;;;;;;5.00;2.50;;;31.10;96.90;;;;;;4991172;28;20026;-83
2022/07/03 08:57:48;;;;;;;5.22;2.42;;;31.00;99.90;;;;;;4990590;28;20027;-84
2022/07/03 09:00:18;;;;;;;5.85;2.67;;;30.70;99.90;;;;;;4990952;28;20022;-84
2022/07/03 09:02:48;;;;;;;5.00;2.40;;;30.40;99.90;;;;;;4990649;28;20468;-84
2022/07/03 09:05:16;;;;;;;10.90;2.20;;;30.10;99.90;;;;;;4991315;28;20018;-83
2022/07/03 09:07:43;;;;;;;9.63;2.30;;;29.80;99.90;;;;;;4990838;28;20026;-87
2022/07/03 09:10:12;;;;;;;4.50;2.30;;;29.90;99.90;;;;;;4986509;28;20085;-89
2022/07/03 09:12:38;;;;;;;12.38;2.70;;;30.00;99.90;;;;;;4994732;28;20074;-85
2022/07/03 09:15:07;;;;;;;6.88;2.30;;;30.10;99.90;;;;;;4991089;28;20106;-91
2022/07/03 09:17:33;;;;;;;5.28;2.22;;;30.10;99.90;;;;;;4988737;28;20014;-85
2022/07/03 09:20:01;;;;;;;6.00;2.03;;;30.20;99.90;;;;;;4995884;28;20022;-84
2022/07/03 09:22:29;;;;;;;3.95;2.20;;;30.30;99.90;;;;;;4995525;28;20045;-83
2022/07/03 09:25:06;;;;;;;3.92;2.40;;;30.20;99.90;;;;;;4995391;28;20030;-84
2022/07/03 09:27:32;;;;;;;4.47;2.00;;;30.20;99.90;;;;;;4985695;28;20063;-84
2022/07/03 09:30:09;;;;;;;5.93;2.63;;;30.00;99.90;;;;;;4994891;28;20436;-85
2022/07/03 09:32:38;;;;;;;6.70;2.90;;;30.10;99.90;;;;;;4990590;28;20384;-85
2022/07/03 09:35:19;;;;;;;6.65;2.40;;;30.10;99.90;;;;;;4994911;28;20026;-85
2022/07/03 09:38:02;;;;;;;4.22;2.45;;;29.90;99.90;;;;;;5001501;28;20065;-85
2022/07/03 09:40:52;;;;;;;6.75;2.50;;;29.70;99.90;;;;;;5000106;28;20069;-86
2022/07/03 09:43:29;;;;;;;6.18;2.10;;;29.60;99.90;;;;;;4987516;28;20031;-85
2022/07/03 09:45:55;;;;;;;6.25;2.25;;;29.60;99.90;;;;;;5009609;28;20093;-85
2022/07/03 09:48:25;;;;;;;7.88;2.35;;;29.50;99.90;;;;;;4995239;28;20022;-84
2022/07/03 09:51:08;;;;;;;4.75;2.25;;;29.40;99.90;;;;;;4994235;28;20037;-84
2022/07/03 09:53:51;;;;;;;14.07;2.58;;;29.40;99.90;;;;;;4993831;28;20093;-84
2022/07/03 09:56:18;;;;;;;6.93;2.70;;;29.30;99.90;;;;;;4993177;28;20467;-87
2022/07/03 09:59:07;;;;;;;3.45;2.40;;;29.40;99.90;;;;;;4993169;28;20027;-84
2022/07/03 10:01:35;;;;;;;5.53;2.42;;;29.30;99.90;;;;;;4991919;28;20047;-85
2022/07/03 10:04:12;;;;;;;7.50;2.67;;;29.30;99.90;;;;;;4993285;28;20382;-85
2022/07/03 10:06:51;;;;;;;7.38;2.25;;;29.40;99.90;;;;;;4994510;28;20072;-85
2022/07/03 10:09:22;;;;;;;4.43;2.25;;;29.50;99.90;;;;;;4982123;28;20037;-85
2022/07/03 10:11:48;;;;;;;6.95;2.15;;;29.50;99.90;;;;;;4997368;28;20035;-85
2022/07/03 10:14:17;;;;;;;5.18;1.77;;;29.60;99.90;;;;;;4994417;28;20505;-84
2022/07/03 10:16:44;;;;;;;7.90;2.50;;;29.60;99.90;;;;;;4979278;28;20545;-84
2022/07/03 10:19:15;;;;;;;3.97;1.95;;;29.70;99.90;;;;;;4992529;28;20165;-85
2022/07/03 10:21:42;;;;;;;3.17;2.23;;;29.60;99.90;;;;;;4993822;28;20038;-85
2022/07/03 10:24:09;;;;;;;5.97;2.65;;;29.80;99.90;;;;;;4979610;28;20018;-84
2022/07/03 10:26:35;;;;;;;4.35;2.42;;;29.90;99.90;;;;;;4992894;28;20120;-87
2022/07/03 10:29:02;;;;;;;10.35;2.60;;;30.00;99.90;;;;;;4993147;28;20497;-89
2022/07/03 10:31:28;;;;;;;5.03;2.40;;;30.00;99.90;;;;;;4995825;28;20042;-87
2022/07/03 10:33:55;;;;;;;3.22;2.20;;;29.80;99.90;;;;;;4994039;28;20061;-86
2022/07/03 10:36:22;;;;;;;4.35;2.20;;;29.70;99.90;;;;;;4989796;28;20076;-86
2022/07/03 10:38:48;;;;;;;8.32;2.50;;;29.80;99.90;;;;;;4992080;28;20117;-87
2022/07/03 10:47:04;;;;;;;7.93;2.00;;;29.50;99.90;;;;;;4993596;28;20571;-89
2022/07/03 10:49:30;;;;;;;8.48;2.80;;;29.50;99.90;;;;;;4993812;28;20030;-88
2022/07/03 10:52:00;;;;;;;7.68;2.35;;;29.70;99.90;;;;;;4993160;28;20045;-89
2022/07/03 10:54:46;;;;;;;6.65;2.20;;;29.90;99.90;;;;;;4993658;28;20509;-88
2022/07/03 10:57:16;;;;;;;9.00;2.00;;;29.70;99.90;;;;;;4991572;28;20046;-90
2022/07/03 10:59:45;;;;;;;5.43;2.55;;;29.80;99.90;;;;;;4991912;28;20517;-89
2022/07/03 11:02:31;;;;;;;5.70;2.47;;;30.00;99.90;;;;;;4994803;28;20054;-86
2022/07/03 11:05:00;;;;;;;11.98;3.13;;;30.20;99.90;;;;;;4991921;28;20392;-88
2022/07/03 11:07:34;;;;;;;5.43;2.30;;;30.20;99.90;;;;;;4993848;28;20054;-86
2022/07/03 11:10:09;;;;;;;9.82;2.25;;;30.30;99.90;;;;;;4992727;28;20026;-86
2022/07/03 11:12:57;;;;;;;3.00;1.85;;;30.40;99.90;;;;;;4995217;28;20121;-85
2022/07/03 11:15:32;;;;;;;4.47;2.10;;;30.40;99.90;;;;;;4992683;28;20061;-85
2022/07/03 11:18:12;;;;;;;7.13;3.35;;;30.60;99.90;;;;;;4991657;28;20132;-85
2022/07/03 11:20:41;;;;;;;4.38;2.03;;;30.80;99.90;;;;;;4991364;28;20053;-89
2022/07/03 11:23:13;;;;;;;7.97;2.30;;;30.70;99.90;;;;;;4999737;28;20583;-81
2022/07/03 11:25:41;;;;;;;10.77;2.43;;;30.80;99.90;;;;;;5000110;28;20029;-87
2022/07/03 11:28:07;;;;;;;7.30;2.17;;;30.70;99.90;;;;;;5013840;28;20277;-82
2022/07/03 11:30:34;;;;;;;7.40;2.00;;;30.80;99.90;;;;;;4998795;28;20077;-87
2022/07/03 11:33:01;;;;;;;9.18;2.60;;;30.60;99.90;;;;;;5000018;28;20054;-86
2022/07/03 11:35:46;;;;;;;7.25;2.30;;;30.50;99.90;;;;;;4999330;28;20209;-83
2022/07/03 11:38:35;;;;;;;5.85;2.70;;;30.50;99.90;;;;;;4987434;28;20018;-82
2022/07/03 11:41:02;;;;;;;3.50;2.10;;;30.40;99.90;;;;;;4992802;28;20050;-86
2022/07/03 11:43:28;;;;;;;6.63;2.00;;;30.50;99.90;;;;;;4992887;28;20029;-84
2022/07/03 11:45:54;;;;;;;7.05;2.33;;;30.40;99.90;;;;;;4991182;28;20034;-79
2022/07/03 11:48:25;;;;;;;5.38;2.30;;;30.40;99.90;;;;;;4992861;28;20034;-83
2022/07/03 11:50:51;;;;;;;4.13;2.30;;;30.50;99.90;;;;;;4992392;28;20026;-82
2022/07/03 11:53:17;;;;;;;7.30;2.17;;;30.10;99.90;;;;;;4992831;28;20464;-80
2022/07/03 11:55:47;;;;;;;4.75;2.10;;;30.10;99.90;;;;;;4983750;28;20026;-86
2022/07/03 11:58:13;;;;;;;4.88;1.85;;;30.00;99.90;;;;;;4992023;28;20038;-89
2022/07/03 12:00:39;;;;;;;8.27;2.55;;;30.10;99.90;;;;;;4990493;28;20085;-87
2022/07/03 12:03:05;;;;;;;5.35;2.13;;;30.20;99.90;;;;;;4991239;28;20039;-84
2022/07/03 12:05:30;;;;;;;3.67;1.92;;;30.40;99.90;;;;;;4990428;28;20027;-87
2022/07/03 12:08:06;;;;;;;5.65;2.17;;;31.90;99.90;;;;;;4992365;28;20613;-87
2022/07/03 12:10:41;;;;;;;5.50;1.90;;;34.70;99.90;;;;;;4991598;28;20420;-87
2022/07/03 12:13:23;;;;;;;6.72;2.00;;;37.10;99.90;;;;;;4983374;28;20026;-87
2022/07/03 12:15:49;;;;;;;4.03;1.80;;;38.60;96.80;;;;;;4990068;28;20035;-85
2022/07/03 12:18:15;;;;;;;6.82;2.10;;;39.20;95.10;;;;;;4990906;28;20022;-87
2022/07/03 12:20:42;;;;;;;5.68;1.95;;;40.70;92.70;;;;;;4987634;28;20502;-86
2022/07/03 12:23:08;;;;;;;7.25;1.90;;;40.60;90.60;;;;;;4988760;28;20050;-89
2022/07/03 12:25:39;;;;;;;4.95;2.03;;;39.40;91.30;;;;;;4985553;28;20030;-88
2022/07/03 12:28:06;;;;;;;9.02;1.90;;;39.20;91.10;;;;;;4979930;28;20076;-87
2022/07/03 12:30:32;;;;;;;5.10;1.77;;;39.00;90.40;;;;;;4989004;28;20033;-86
2022/07/03 12:32:59;;;;;;;4.25;2.00;;;39.00;90.50;;;;;;4987017;28;20034;-88
2022/07/03 12:35:26;;;;;;;6.32;1.85;;;39.50;88.80;;;;;;4988157;28;20097;-90
2022/07/03 12:37:52;;;;;;;5.93;2.10;;;39.30;88.40;;;;;;4993416;28;20033;-89
2022/07/03 12:40:18;;;;;;;4.68;1.75;;;39.30;88.10;;;;;;4990914;28;20031;-89
2022/07/03 12:42:48;;;;;;;5.45;2.08;;;39.00;88.10;;;;;;4994566;28;20077;-95
2022/07/03 12:45:16;;;;;;;3.95;2.13;;;39.40;90.60;;;;;;4990251;28;20033;-90
2022/07/03 12:47:41;;;;;;;3.83;2.03;;;39.20;89.00;;;;;;4992504;28;20496;-90
2022/07/03 12:50:08;;;;;;;4.68;1.80;;;39.30;89.20;;;;;;4993045;28;20022;-91
2022/07/03 12:52:52;;;;;;;9.27;1.85;;;39.70;87.70;;;;;;4993079;28;20410;-89
2022/07/03 12:55:29;;;;;;;6.30;2.05;;;39.90;90.70;;;;;;4992654;28;20030;-90
2022/07/03 13:01:25;;;;;;;10.85;2.15;;;41.10;88.30;;;;;;4969742;28;20116;-88
2022/07/03 13:03:53;;;;;;;4.82;1.95;;;41.40;90.40;;;;;;5008148;28;20054;-93
2022/07/03 13:06:21;;;;;;;3.67;2.05;;;41.40;86.00;;;;;;4995375;28;20030;-93
2022/07/03 13:08:54;;;;;;;4.72;2.10;;;40.80;85.70;;;;;;4993450;28;20101;-93
2022/07/03 13:11:27;;;;;;;8.88;1.95;;;41.60;84.80;;;;;;4995045;28;20022;-93
2022/07/03 13:13:53;;;;;;;5.65;2.22;;;40.20;86.70;;;;;;5005591;28;20026;-92